sensor_id;sensor_type;location;lat;lon;timestamp;P1;durP1;ratioP1;P2;durP2;ratioP2
44440;SDS011;30146;52.268;20.944;2022-12-18T00:00:06;35.50;;;17.90;;
44440;SDS011;30146;52.268;20.944;2022-12-18T00:02:43;37.80;;;17.90;;
44440;SDS011;30146;52.268;20.944;2022-12-18T00:05:12;27.50;;;17.70;;
44440;SDS011;30146;52.268;20.944;2022-12-18T00:07:40;31.20;;;18.10;;
44440;SDS011;30146;52.268;20.944;2022-12-18T00:10:09;32.30;;;17.70;;
44440;SDS011;30146;52.268;20.944;2022-12-18T00:15:11;28.40;;;16.60;;
44440;SDS011;30146;52.268;20.944;2022-12-18T00:17:40;38.80;;;18.10;;
44440;SDS011;30146;52.268;20.944;2022-12-18T00:20:10;39.60;;;18.40;;
44440;SDS011;30146;52.268;20.944;2022-12-18T00:22:38;38.20;;;19.80;;
44440;SDS011;30146;52.268;20.944;2022-12-18T00:25:08;32.70;;;19.30;;
44440;SDS011;30146;52.268;20.944;2022-12-18T00:27:36;34.70;;;19.90;;
44440;SDS011;30146;52.268;20.944;2022-12-18T00:30:06;37.10;;;19.20;;
44440;SDS011;30146;52.268;20.944;2022-12-18T00:32:35;35.40;;;19.40;;
44440;SDS011;30146;52.268;20.944;2022-12-18T00:35:05;38.00;;;20.50;;
44440;SDS011;30146;52.268;20.944;2022-12-18T00:37:35;39.60;;;18.80;;
44440;SDS011;30146;52.268;20.944;2022-12-18T00:40:05;33.20;;;18.80;;
44440;SDS011;30146;52.268;20.944;2022-12-18T00:42:36;37.00;;;19.70;;
44440;SDS011;30146;52.268;20.944;2022-12-18T00:45:23;40.20;;;19.40;;
44440;SDS011;30146;52.268;20.944;2022-12-18T00:47:53;40.40;;;19.70;;
44440;SDS011;30146;52.268;20.944;2022-12-18T00:50:22;41.20;;;20.40;;
44440;SDS011;30146;52.268;20.944;2022-12-18T00:52:52;32.10;;;18.50;;
44440;SDS011;30146;52.268;20.944;2022-12-18T00:55:20;33.70;;;17.90;;
44440;SDS011;30146;52.268;20.944;2022-12-18T00:57:49;38.80;;;18.40;;
44440;SDS011;30146;52.268;20.944;2022-12-18T01:00:19;38.70;;;19.20;;
44440;SDS011;30146;52.268;20.944;2022-12-18T01:02:48;41.60;;;20.60;;
44440;SDS011;30146;52.268;20.944;2022-12-18T01:05:17;34.70;;;18.10;;
44440;SDS011;30146;52.268;20.944;2022-12-18T01:07:46;36.90;;;19.30;;
44440;SDS011;30146;52.268;20.944;2022-12-18T01:10:14;38.20;;;20.40;;
44440;SDS011;30146;52.268;20.944;2022-12-18T01:12:43;35.20;;;19.40;;
44440;SDS011;30146;52.268;20.944;2022-12-18T01:15:12;37.10;;;19.50;;
44440;SDS011;30146;52.268;20.944;2022-12-18T01:17:42;37.30;;;19.40;;
44440;SDS011;30146;52.268;20.944;2022-12-18T01:20:11;28.40;;;16.90;;
44440;SDS011;30146;52.268;20.944;2022-12-18T01:22:40;33.50;;;18.90;;
44440;SDS011;30146;52.268;20.944;2022-12-18T01:25:09;32.60;;;18.70;;
44440;SDS011;30146;52.268;20.944;2022-12-18T01:27:37;38.10;;;19.80;;
44440;SDS011;30146;52.268;20.944;2022-12-18T01:30:07;33.10;;;19.60;;
44440;SDS011;30146;52.268;20.944;2022-12-18T01:32:37;39.20;;;20.70;;
44440;SDS011;30146;52.268;20.944;2022-12-18T01:35:07;37.20;;;20.40;;
44440;SDS011;30146;52.268;20.944;2022-12-18T01:37:35;46.00;;;20.90;;
44440;SDS011;30146;52.268;20.944;2022-12-18T01:40:06;31.80;;;17.90;;
44440;SDS011;30146;52.268;20.944;2022-12-18T01:42:36;35.90;;;19.20;;
44440;SDS011;30146;52.268;20.944;2022-12-18T01:45:06;32.50;;;17.80;;
44440;SDS011;30146;52.268;20.944;2022-12-18T01:47:50;34.20;;;19.10;;
44440;SDS011;30146;52.268;20.944;2022-12-18T01:50:21;36.50;;;19.20;;
44440;SDS011;30146;52.268;20.944;2022-12-18T01:52:54;34.50;;;18.50;;
44440;SDS011;30146;52.268;20.944;2022-12-18T01:55:26;35.20;;;19.30;;
44440;SDS011;30146;52.268;20.944;2022-12-18T01:57:57;30.70;;;15.30;;
44440;SDS011;30146;52.268;20.944;2022-12-18T02:00:28;38.20;;;18.90;;
44440;SDS011;30146;52.268;20.944;2022-12-18T02:02:57;36.40;;;19.00;;
44440;SDS011;30146;52.268;20.944;2022-12-18T02:05:29;31.70;;;17.60;;
44440;SDS011;30146;52.268;20.944;2022-12-18T02:08:09;36.00;;;17.20;;
44440;SDS011;30146;52.268;20.944;2022-12-18T02:10:45;41.70;;;19.00;;
44440;SDS011;30146;52.268;20.944;2022-12-18T02:13:25;36.20;;;17.70;;
44440;SDS011;30146;52.268;20.944;2022-12-18T02:16:00;40.00;;;18.90;;
44440;SDS011;30146;52.268;20.944;2022-12-18T02:18:36;37.20;;;19.00;;
44440;SDS011;30146;52.268;20.944;2022-12-18T02:21:10;33.80;;;16.60;;
44440;SDS011;30146;52.268;20.944;2022-12-18T02:23:50;36.50;;;17.50;;
44440;SDS011;30146;52.268;20.944;2022-12-18T02:26:33;34.20;;;18.40;;
44440;SDS011;30146;52.268;20.944;2022-12-18T02:29:05;37.90;;;18.60;;
44440;SDS011;30146;52.268;20.944;2022-12-18T02:31:39;38.20;;;19.50;;
44440;SDS011;30146;52.268;20.944;2022-12-18T02:34:11;36.70;;;17.00;;
44440;SDS011;30146;52.268;20.944;2022-12-18T02:36:41;37.70;;;17.60;;
44440;SDS011;30146;52.268;20.944;2022-12-18T02:39:12;36.80;;;16.90;;
44440;SDS011;30146;52.268;20.944;2022-12-18T02:41:53;44.60;;;21.20;;
44440;SDS011;30146;52.268;20.944;2022-12-18T02:44:21;38.40;;;17.10;;
44440;SDS011;30146;52.268;20.944;2022-12-18T02:46:50;31.70;;;17.40;;
44440;SDS011;30146;52.268;20.944;2022-12-18T02:49:24;30.10;;;15.20;;
44440;SDS011;30146;52.268;20.944;2022-12-18T02:52:02;34.40;;;15.10;;
44440;SDS011;30146;52.268;20.944;2022-12-18T02:54:44;39.10;;;17.20;;
44440;SDS011;30146;52.268;20.944;2022-12-18T02:57:24;31.60;;;16.00;;
44440;SDS011;30146;52.268;20.944;2022-12-18T03:00:02;35.40;;;17.90;;
44440;SDS011;30146;52.268;20.944;2022-12-18T03:02:35;34.70;;;17.60;;
44440;SDS011;30146;52.268;20.944;2022-12-18T03:05:10;31.90;;;17.00;;
44440;SDS011;30146;52.268;20.944;2022-12-18T03:07:44;33.80;;;17.00;;
44440;SDS011;30146;52.268;20.944;2022-12-18T03:10:19;30.00;;;17.00;;
44440;SDS011;30146;52.268;20.944;2022-12-18T03:12:53;38.00;;;17.00;;
44440;SDS011;30146;52.268;20.944;2022-12-18T03:15:27;38.40;;;18.00;;
44440;SDS011;30146;52.268;20.944;2022-12-18T03:18:06;38.50;;;15.90;;
44440;SDS011;30146;52.268;20.944;2022-12-18T03:20:37;40.80;;;17.90;;
44440;SDS011;30146;52.268;20.944;2022-12-18T03:23:10;36.40;;;17.40;;
44440;SDS011;30146;52.268;20.944;2022-12-18T03:25:45;37.10;;;18.70;;
44440;SDS011;30146;52.268;20.944;2022-12-18T03:28:18;33.60;;;16.70;;
44440;SDS011;30146;52.268;20.944;2022-12-18T03:33:25;34.90;;;16.60;;
44440;SDS011;30146;52.268;20.944;2022-12-18T03:35:57;38.40;;;16.30;;
44440;SDS011;30146;52.268;20.944;2022-12-18T03:38:25;29.50;;;14.40;;
44440;SDS011;30146;52.268;20.944;2022-12-18T03:40:56;39.00;;;16.20;;
44440;SDS011;30146;52.268;20.944;2022-12-18T03:43:37;29.80;;;14.60;;
44440;SDS011;30146;52.268;20.944;2022-12-18T03:46:14;33.90;;;15.30;;
44440;SDS011;30146;52.268;20.944;2022-12-18T03:48:49;30.50;;;15.80;;
44440;SDS011;30146;52.268;20.944;2022-12-18T03:51:23;36.30;;;16.30;;
44440;SDS011;30146;52.268;20.944;2022-12-18T03:53:57;37.90;;;16.50;;
44440;SDS011;30146;52.268;20.944;2022-12-18T03:56:33;37.00;;;17.70;;
44440;SDS011;30146;52.268;20.944;2022-12-18T03:59:07;37.00;;;16.40;;
44440;SDS011;30146;52.268;20.944;2022-12-18T04:01:38;35.10;;;16.40;;
44440;SDS011;30146;52.268;20.944;2022-12-18T04:04:11;39.10;;;17.30;;
44440;SDS011;30146;52.268;20.944;2022-12-18T04:06:42;37.00;;;16.00;;
44440;SDS011;30146;52.268;20.944;2022-12-18T04:09:13;34.90;;;16.00;;
44440;SDS011;30146;52.268;20.944;2022-12-18T04:11:44;32.80;;;16.30;;
44440;SDS011;30146;52.268;20.944;2022-12-18T04:14:15;34.50;;;15.30;;
44440;SDS011;30146;52.268;20.944;2022-12-18T04:16:46;31.70;;;16.20;;
44440;SDS011;30146;52.268;20.944;2022-12-18T04:19:15;33.30;;;15.10;;
44440;SDS011;30146;52.268;20.944;2022-12-18T04:21:44;35.00;;;15.90;;
44440;SDS011;30146;52.268;20.944;2022-12-18T04:24:13;37.40;;;15.50;;
44440;SDS011;30146;52.268;20.944;2022-12-18T04:26:48;27.50;;;14.90;;
44440;SDS011;30146;52.268;20.944;2022-12-18T04:29:21;27.60;;;15.30;;
44440;SDS011;30146;52.268;20.944;2022-12-18T04:31:50;30.50;;;15.70;;
44440;SDS011;30146;52.268;20.944;2022-12-18T04:34:19;28.80;;;15.60;;
44440;SDS011;30146;52.268;20.944;2022-12-18T04:36:50;34.10;;;16.30;;
44440;SDS011;30146;52.268;20.944;2022-12-18T04:39:20;31.80;;;15.00;;
44440;SDS011;30146;52.268;20.944;2022-12-18T04:41:49;33.50;;;16.90;;
44440;SDS011;30146;52.268;20.944;2022-12-18T04:44:17;30.50;;;14.90;;
44440;SDS011;30146;52.268;20.944;2022-12-18T04:46:46;30.40;;;16.00;;
44440;SDS011;30146;52.268;20.944;2022-12-18T04:49:14;32.60;;;17.40;;
44440;SDS011;30146;52.268;20.944;2022-12-18T04:51:43;30.20;;;16.90;;
44440;SDS011;30146;52.268;20.944;2022-12-18T04:54:11;34.30;;;16.70;;
44440;SDS011;30146;52.268;20.944;2022-12-18T04:56:39;32.50;;;16.00;;
44440;SDS011;30146;52.268;20.944;2022-12-18T04:59:08;31.10;;;15.30;;
44440;SDS011;30146;52.268;20.944;2022-12-18T05:01:37;30.80;;;15.00;;
44440;SDS011;30146;52.268;20.944;2022-12-18T05:04:06;40.30;;;20.20;;
44440;SDS011;30146;52.268;20.944;2022-12-18T05:06:35;34.40;;;17.80;;
44440;SDS011;30146;52.268;20.944;2022-12-18T05:09:03;29.40;;;15.50;;
44440;SDS011;30146;52.268;20.944;2022-12-18T05:11:32;29.20;;;14.90;;
44440;SDS011;30146;52.268;20.944;2022-12-18T05:14:00;29.40;;;15.20;;
44440;SDS011;30146;52.268;20.944;2022-12-18T05:16:29;31.40;;;16.10;;
44440;SDS011;30146;52.268;20.944;2022-12-18T05:18:57;30.90;;;14.50;;
44440;SDS011;30146;52.268;20.944;2022-12-18T05:21:26;35.60;;;15.60;;
44440;SDS011;30146;52.268;20.944;2022-12-18T05:23:54;31.70;;;14.10;;
44440;SDS011;30146;52.268;20.944;2022-12-18T05:26:23;34.50;;;15.50;;
44440;SDS011;30146;52.268;20.944;2022-12-18T05:28:51;35.30;;;17.10;;
44440;SDS011;30146;52.268;20.944;2022-12-18T05:31:19;38.60;;;17.00;;
44440;SDS011;30146;52.268;20.944;2022-12-18T05:33:48;31.70;;;15.70;;
44440;SDS011;30146;52.268;20.944;2022-12-18T05:36:16;36.10;;;16.90;;
44440;SDS011;30146;52.268;20.944;2022-12-18T05:38:45;35.60;;;15.50;;
44440;SDS011;30146;52.268;20.944;2022-12-18T05:41:13;38.00;;;17.20;;
44440;SDS011;30146;52.268;20.944;2022-12-18T05:43:41;33.30;;;15.60;;
44440;SDS011;30146;52.268;20.944;2022-12-18T05:46:12;38.30;;;17.00;;
44440;SDS011;30146;52.268;20.944;2022-12-18T05:48:42;33.50;;;15.70;;
44440;SDS011;30146;52.268;20.944;2022-12-18T05:51:12;37.90;;;17.00;;
44440;SDS011;30146;52.268;20.944;2022-12-18T05:53:43;37.30;;;18.20;;
44440;SDS011;30146;52.268;20.944;2022-12-18T05:56:12;44.10;;;18.00;;
44440;SDS011;30146;52.268;20.944;2022-12-18T05:58:42;42.70;;;18.90;;
44440;SDS011;30146;52.268;20.944;2022-12-18T06:01:12;39.30;;;16.50;;
44440;SDS011;30146;52.268;20.944;2022-12-18T06:03:42;43.60;;;20.60;;
44440;SDS011;30146;52.268;20.944;2022-12-18T06:06:16;40.40;;;18.20;;
44440;SDS011;30146;52.268;20.944;2022-12-18T06:08:46;49.30;;;20.30;;
44440;SDS011;30146;52.268;20.944;2022-12-18T06:11:16;43.90;;;19.20;;
44440;SDS011;30146;52.268;20.944;2022-12-18T06:13:46;40.40;;;20.20;;
44440;SDS011;30146;52.268;20.944;2022-12-18T06:16:24;50.30;;;20.50;;
44440;SDS011;30146;52.268;20.944;2022-12-18T06:18:53;48.00;;;19.80;;
44440;SDS011;30146;52.268;20.944;2022-12-18T06:21:23;54.40;;;25.70;;
44440;SDS011;30146;52.268;20.944;2022-12-18T06:23:52;46.00;;;20.60;;
44440;SDS011;30146;52.268;20.944;2022-12-18T06:26:21;43.80;;;18.50;;
44440;SDS011;30146;52.268;20.944;2022-12-18T06:28:54;53.70;;;22.30;;
44440;SDS011;30146;52.268;20.944;2022-12-18T06:31:23;56.30;;;21.70;;
44440;SDS011;30146;52.268;20.944;2022-12-18T06:33:52;56.80;;;21.70;;
44440;SDS011;30146;52.268;20.944;2022-12-18T06:36:20;53.70;;;21.90;;
44440;SDS011;30146;52.268;20.944;2022-12-18T06:38:49;57.60;;;23.00;;
44440;SDS011;30146;52.268;20.944;2022-12-18T06:41:18;50.50;;;21.70;;
44440;SDS011;30146;52.268;20.944;2022-12-18T06:43:48;58.30;;;23.50;;
44440;SDS011;30146;52.268;20.944;2022-12-18T06:46:16;55.60;;;22.40;;
44440;SDS011;30146;52.268;20.944;2022-12-18T06:48:47;52.40;;;19.80;;
44440;SDS011;30146;52.268;20.944;2022-12-18T06:51:17;53.70;;;21.30;;
44440;SDS011;30146;52.268;20.944;2022-12-18T06:53:47;49.70;;;19.70;;
44440;SDS011;30146;52.268;20.944;2022-12-18T06:56:16;50.40;;;19.80;;
44440;SDS011;30146;52.268;20.944;2022-12-18T06:58:44;61.90;;;21.50;;
44440;SDS011;30146;52.268;20.944;2022-12-18T07:01:13;49.40;;;21.80;;
44440;SDS011;30146;52.268;20.944;2022-12-18T07:03:42;56.50;;;22.30;;
44440;SDS011;30146;52.268;20.944;2022-12-18T07:06:15;61.30;;;21.40;;
44440;SDS011;30146;52.268;20.944;2022-12-18T07:08:45;44.40;;;20.90;;
44440;SDS011;30146;52.268;20.944;2022-12-18T07:11:14;50.40;;;20.90;;
44440;SDS011;30146;52.268;20.944;2022-12-18T07:13:45;50.60;;;21.50;;
44440;SDS011;30146;52.268;20.944;2022-12-18T07:16:15;54.30;;;23.30;;
44440;SDS011;30146;52.268;20.944;2022-12-18T07:18:51;55.30;;;20.80;;
44440;SDS011;30146;52.268;20.944;2022-12-18T07:21:21;55.30;;;22.00;;
44440;SDS011;30146;52.268;20.944;2022-12-18T07:23:50;50.00;;;22.20;;
44440;SDS011;30146;52.268;20.944;2022-12-18T07:26:19;60.30;;;22.50;;
44440;SDS011;30146;52.268;20.944;2022-12-18T07:28:49;62.70;;;22.50;;
44440;SDS011;30146;52.268;20.944;2022-12-18T07:31:18;56.10;;;22.00;;
44440;SDS011;30146;52.268;20.944;2022-12-18T07:33:48;56.30;;;23.50;;
44440;SDS011;30146;52.268;20.944;2022-12-18T07:36:18;53.40;;;22.60;;
44440;SDS011;30146;52.268;20.944;2022-12-18T07:38:47;65.90;;;23.10;;
44440;SDS011;30146;52.268;20.944;2022-12-18T07:41:16;56.70;;;22.60;;
44440;SDS011;30146;52.268;20.944;2022-12-18T07:43:45;44.30;;;20.90;;
44440;SDS011;30146;52.268;20.944;2022-12-18T07:46:14;55.20;;;22.30;;
44440;SDS011;30146;52.268;20.944;2022-12-18T07:48:43;56.50;;;23.70;;
44440;SDS011;30146;52.268;20.944;2022-12-18T07:51:17;55.60;;;23.60;;
44440;SDS011;30146;52.268;20.944;2022-12-18T07:53:46;44.20;;;20.70;;
44440;SDS011;30146;52.268;20.944;2022-12-18T07:56:19;53.60;;;22.20;;
44440;SDS011;30146;52.268;20.944;2022-12-18T07:58:57;49.70;;;20.10;;
44440;SDS011;30146;52.268;20.944;2022-12-18T08:01:27;46.00;;;20.50;;
44440;SDS011;30146;52.268;20.944;2022-12-18T08:03:56;49.90;;;20.80;;
44440;SDS011;30146;52.268;20.944;2022-12-18T08:06:25;60.00;;;24.80;;
44440;SDS011;30146;52.268;20.944;2022-12-18T08:08:54;58.40;;;23.70;;
44440;SDS011;30146;52.268;20.944;2022-12-18T08:11:23;50.90;;;22.70;;
44440;SDS011;30146;52.268;20.944;2022-12-18T08:13:53;42.30;;;19.60;;
44440;SDS011;30146;52.268;20.944;2022-12-18T08:16:22;45.30;;;21.60;;
44440;SDS011;30146;52.268;20.944;2022-12-18T08:18:51;50.20;;;22.10;;
44440;SDS011;30146;52.268;20.944;2022-12-18T08:21:20;59.30;;;23.70;;
44440;SDS011;30146;52.268;20.944;2022-12-18T08:23:50;53.80;;;20.80;;
44440;SDS011;30146;52.268;20.944;2022-12-18T08:26:20;46.10;;;21.50;;
44440;SDS011;30146;52.268;20.944;2022-12-18T08:28:49;48.90;;;22.70;;
44440;SDS011;30146;52.268;20.944;2022-12-18T08:31:18;43.60;;;20.70;;
44440;SDS011;30146;52.268;20.944;2022-12-18T08:33:48;46.70;;;21.10;;
44440;SDS011;30146;52.268;20.944;2022-12-18T08:36:18;49.30;;;22.20;;
44440;SDS011;30146;52.268;20.944;2022-12-18T08:38:47;45.00;;;21.80;;
44440;SDS011;30146;52.268;20.944;2022-12-18T08:41:16;45.50;;;19.70;;
44440;SDS011;30146;52.268;20.944;2022-12-18T08:43:46;48.90;;;20.60;;
44440;SDS011;30146;52.268;20.944;2022-12-18T08:46:33;44.30;;;21.20;;
44440;SDS011;30146;52.268;20.944;2022-12-18T08:49:03;48.10;;;22.70;;
44440;SDS011;30146;52.268;20.944;2022-12-18T08:51:32;58.60;;;21.60;;
44440;SDS011;30146;52.268;20.944;2022-12-18T08:54:02;49.60;;;22.20;;
44440;SDS011;30146;52.268;20.944;2022-12-18T08:56:33;46.50;;;20.70;;
44440;SDS011;30146;52.268;20.944;2022-12-18T08:59:01;50.40;;;20.40;;
44440;SDS011;30146;52.268;20.944;2022-12-18T09:01:31;49.20;;;19.70;;
44440;SDS011;30146;52.268;20.944;2022-12-18T09:04:00;43.70;;;20.40;;
44440;SDS011;30146;52.268;20.944;2022-12-18T09:06:30;47.30;;;21.30;;
44440;SDS011;30146;52.268;20.944;2022-12-18T09:08:59;52.30;;;21.50;;
44440;SDS011;30146;52.268;20.944;2022-12-18T09:11:29;54.20;;;21.50;;
44440;SDS011;30146;52.268;20.944;2022-12-18T09:13:59;47.40;;;21.80;;
44440;SDS011;30146;52.268;20.944;2022-12-18T09:16:28;45.50;;;21.40;;
44440;SDS011;30146;52.268;20.944;2022-12-18T09:18:59;50.70;;;24.70;;
44440;SDS011;30146;52.268;20.944;2022-12-18T09:21:33;50.70;;;22.80;;
44440;SDS011;30146;52.268;20.944;2022-12-18T09:24:04;39.90;;;19.70;;
44440;SDS011;30146;52.268;20.944;2022-12-18T09:26:35;48.30;;;20.60;;
44440;SDS011;30146;52.268;20.944;2022-12-18T09:29:05;51.70;;;23.20;;
44440;SDS011;30146;52.268;20.944;2022-12-18T09:31:34;45.80;;;18.80;;
44440;SDS011;30146;52.268;20.944;2022-12-18T09:34:03;48.90;;;20.10;;
44440;SDS011;30146;52.268;20.944;2022-12-18T09:36:32;45.60;;;20.80;;
44440;SDS011;30146;52.268;20.944;2022-12-18T09:39:01;47.20;;;20.70;;
44440;SDS011;30146;52.268;20.944;2022-12-18T09:41:40;45.50;;;20.60;;
44440;SDS011;30146;52.268;20.944;2022-12-18T09:44:22;52.60;;;23.10;;
44440;SDS011;30146;52.268;20.944;2022-12-18T09:46:59;40.20;;;18.40;;
44440;SDS011;30146;52.268;20.944;2022-12-18T09:49:40;47.50;;;20.70;;
44440;SDS011;30146;52.268;20.944;2022-12-18T09:52:13;44.40;;;21.00;;
44440;SDS011;30146;52.268;20.944;2022-12-18T09:57:18;43.50;;;19.40;;
44440;SDS011;30146;52.268;20.944;2022-12-18T09:59:50;49.60;;;19.90;;
44440;SDS011;30146;52.268;20.944;2022-12-18T10:02:22;51.30;;;21.70;;
44440;SDS011;30146;52.268;20.944;2022-12-18T10:04:57;52.70;;;21.10;;
44440;SDS011;30146;52.268;20.944;2022-12-18T10:07:37;47.90;;;21.00;;
44440;SDS011;30146;52.268;20.944;2022-12-18T10:10:14;49.90;;;22.10;;
44440;SDS011;30146;52.268;20.944;2022-12-18T10:12:52;51.40;;;22.10;;
44440;SDS011;30146;52.268;20.944;2022-12-18T10:15:32;45.60;;;21.60;;
44440;SDS011;30146;52.268;20.944;2022-12-18T10:18:06;43.50;;;19.70;;
44440;SDS011;30146;52.268;20.944;2022-12-18T10:20:49;47.40;;;21.70;;
44440;SDS011;30146;52.268;20.944;2022-12-18T10:23:21;58.50;;;24.40;;
44440;SDS011;30146;52.268;20.944;2022-12-18T10:25:59;54.30;;;24.00;;
44440;SDS011;30146;52.268;20.944;2022-12-18T10:28:31;46.70;;;21.40;;
44440;SDS011;30146;52.268;20.944;2022-12-18T10:31:06;52.10;;;22.30;;
44440;SDS011;30146;52.268;20.944;2022-12-18T10:33:41;59.90;;;22.10;;
44440;SDS011;30146;52.268;20.944;2022-12-18T10:36:10;55.20;;;22.60;;
44440;SDS011;30146;52.268;20.944;2022-12-18T10:38:39;56.10;;;24.00;;
44440;SDS011;30146;52.268;20.944;2022-12-18T10:41:22;48.10;;;23.10;;
44440;SDS011;30146;52.268;20.944;2022-12-18T10:46:42;46.40;;;21.00;;
44440;SDS011;30146;52.268;20.944;2022-12-18T10:52:12;55.30;;;25.00;;
44440;SDS011;30146;52.268;20.944;2022-12-18T10:54:48;55.90;;;26.00;;
44440;SDS011;30146;52.268;20.944;2022-12-18T10:57:29;60.70;;;26.20;;
44440;SDS011;30146;52.268;20.944;2022-12-18T11:00:00;65.20;;;28.80;;
44440;SDS011;30146;52.268;20.944;2022-12-18T11:02:47;52.50;;;24.50;;
44440;SDS011;30146;52.268;20.944;2022-12-18T11:05:26;55.60;;;24.30;;
44440;SDS011;30146;52.268;20.944;2022-12-18T11:07:57;65.80;;;28.70;;
44440;SDS011;30146;52.268;20.944;2022-12-18T11:10:29;60.80;;;29.20;;
44440;SDS011;30146;52.268;20.944;2022-12-18T11:15:45;53.80;;;23.30;;
44440;SDS011;30146;52.268;20.944;2022-12-18T11:18:16;61.60;;;27.70;;
44440;SDS011;30146;52.268;20.944;2022-12-18T11:20:51;62.70;;;25.10;;
44440;SDS011;30146;52.268;20.944;2022-12-18T11:23:25;63.00;;;27.10;;
44440;SDS011;30146;52.268;20.944;2022-12-18T11:25:55;58.30;;;26.50;;
44440;SDS011;30146;52.268;20.944;2022-12-18T11:28:38;58.50;;;24.80;;
44440;SDS011;30146;52.268;20.944;2022-12-18T11:34:02;65.20;;;27.40;;
44440;SDS011;30146;52.268;20.944;2022-12-18T11:36:57;62.30;;;25.40;;
44440;SDS011;30146;52.268;20.944;2022-12-18T11:39:30;57.30;;;25.10;;
44440;SDS011;30146;52.268;20.944;2022-12-18T11:44:42;56.80;;;24.00;;
44440;SDS011;30146;52.268;20.944;2022-12-18T11:47:18;69.30;;;28.30;;
44440;SDS011;30146;52.268;20.944;2022-12-18T11:49:53;63.40;;;25.00;;
44440;SDS011;30146;52.268;20.944;2022-12-18T11:52:28;69.40;;;30.00;;
44440;SDS011;30146;52.268;20.944;2022-12-18T11:55:09;68.60;;;26.40;;
44440;SDS011;30146;52.268;20.944;2022-12-18T11:57:43;65.60;;;26.90;;
44440;SDS011;30146;52.268;20.944;2022-12-18T12:00:22;66.80;;;28.00;;
44440;SDS011;30146;52.268;20.944;2022-12-18T12:03:03;58.20;;;25.90;;
44440;SDS011;30146;52.268;20.944;2022-12-18T12:05:54;57.20;;;22.60;;
44440;SDS011;30146;52.268;20.944;2022-12-18T12:08:37;59.70;;;26.20;;
44440;SDS011;30146;52.268;20.944;2022-12-18T12:11:16;64.40;;;26.60;;
44440;SDS011;30146;52.268;20.944;2022-12-18T12:13:58;60.90;;;27.20;;
44440;SDS011;30146;52.268;20.944;2022-12-18T12:16:48;63.90;;;27.80;;
44440;SDS011;30146;52.268;20.944;2022-12-18T12:19:28;56.80;;;26.00;;
44440;SDS011;30146;52.268;20.944;2022-12-18T12:22:08;57.80;;;25.70;;
44440;SDS011;30146;52.268;20.944;2022-12-18T12:24:48;54.40;;;25.20;;
44440;SDS011;30146;52.268;20.944;2022-12-18T12:27:27;62.40;;;26.70;;
44440;SDS011;30146;52.268;20.944;2022-12-18T12:30:08;60.80;;;26.30;;
44440;SDS011;30146;52.268;20.944;2022-12-18T12:35:21;52.00;;;20.70;;
44440;SDS011;30146;52.268;20.944;2022-12-18T12:38:00;55.00;;;26.90;;
44440;SDS011;30146;52.268;20.944;2022-12-18T12:40:41;62.20;;;25.10;;
44440;SDS011;30146;52.268;20.944;2022-12-18T12:43:25;64.20;;;26.50;;
44440;SDS011;30146;52.268;20.944;2022-12-18T12:46:02;60.60;;;27.60;;
44440;SDS011;30146;52.268;20.944;2022-12-18T12:48:39;57.50;;;26.80;;
44440;SDS011;30146;52.268;20.944;2022-12-18T12:51:16;75.00;;;27.60;;
44440;SDS011;30146;52.268;20.944;2022-12-18T12:53:48;62.50;;;26.70;;
44440;SDS011;30146;52.268;20.944;2022-12-18T12:56:19;64.80;;;24.50;;
44440;SDS011;30146;52.268;20.944;2022-12-18T12:58:57;68.60;;;26.60;;
44440;SDS011;30146;52.268;20.944;2022-12-18T13:01:34;53.90;;;25.90;;
44440;SDS011;30146;52.268;20.944;2022-12-18T13:04:11;77.10;;;26.30;;
44440;SDS011;30146;52.268;20.944;2022-12-18T13:06:52;64.10;;;29.30;;
44440;SDS011;30146;52.268;20.944;2022-12-18T13:09:30;75.00;;;30.60;;
44440;SDS011;30146;52.268;20.944;2022-12-18T13:12:03;74.20;;;30.80;;
44440;SDS011;30146;52.268;20.944;2022-12-18T13:15:12;77.20;;;31.70;;
44440;SDS011;30146;52.268;20.944;2022-12-18T13:17:48;67.30;;;28.90;;
44440;SDS011;30146;52.268;20.944;2022-12-18T13:20:32;58.30;;;25.30;;
44440;SDS011;30146;52.268;20.944;2022-12-18T13:23:17;58.70;;;27.50;;
44440;SDS011;30146;52.268;20.944;2022-12-18T13:25:54;66.90;;;28.10;;
44440;SDS011;30146;52.268;20.944;2022-12-18T13:28:50;65.50;;;26.90;;
44440;SDS011;30146;52.268;20.944;2022-12-18T13:39:58;40.20;;;16.20;;
44440;SDS011;30146;52.268;20.944;2022-12-18T13:42:40;49.10;;;20.80;;
44440;SDS011;30146;52.268;20.944;2022-12-18T13:45:41;52.60;;;22.50;;
44440;SDS011;30146;52.268;20.944;2022-12-18T13:48:33;57.50;;;22.70;;
44440;SDS011;30146;52.268;20.944;2022-12-18T13:51:06;52.30;;;21.30;;
44440;SDS011;30146;52.268;20.944;2022-12-18T13:53:39;55.20;;;23.20;;
44440;SDS011;30146;52.268;20.944;2022-12-18T13:56:25;34.00;;;14.70;;
44440;SDS011;30146;52.268;20.944;2022-12-18T13:59:08;57.00;;;22.50;;
44440;SDS011;30146;52.268;20.944;2022-12-18T14:01:45;56.70;;;22.90;;
44440;SDS011;30146;52.268;20.944;2022-12-18T14:04:18;64.00;;;25.40;;
44440;SDS011;30146;52.268;20.944;2022-12-18T14:06:50;55.00;;;25.10;;
44440;SDS011;30146;52.268;20.944;2022-12-18T14:09:22;59.30;;;27.60;;
44440;SDS011;30146;52.268;20.944;2022-12-18T14:11:53;73.60;;;30.80;;
44440;SDS011;30146;52.268;20.944;2022-12-18T14:14:44;72.10;;;31.30;;
44440;SDS011;30146;52.268;20.944;2022-12-18T14:17:16;75.30;;;31.40;;
44440;SDS011;30146;52.268;20.944;2022-12-18T14:19:46;69.60;;;29.70;;
44440;SDS011;30146;52.268;20.944;2022-12-18T14:22:18;74.90;;;29.70;;
44440;SDS011;30146;52.268;20.944;2022-12-18T14:25:04;66.50;;;26.70;;
44440;SDS011;30146;52.268;20.944;2022-12-18T14:27:42;70.20;;;28.10;;
44440;SDS011;30146;52.268;20.944;2022-12-18T14:33:04;62.50;;;28.60;;
44440;SDS011;30146;52.268;20.944;2022-12-18T14:35:37;53.30;;;20.50;;
44440;SDS011;30146;52.268;20.944;2022-12-18T14:38:11;65.10;;;26.40;;
44440;SDS011;30146;52.268;20.944;2022-12-18T14:40:48;54.50;;;23.50;;
44440;SDS011;30146;52.268;20.944;2022-12-18T14:43:23;58.30;;;24.30;;
44440;SDS011;30146;52.268;20.944;2022-12-18T14:45:53;60.10;;;23.80;;
44440;SDS011;30146;52.268;20.944;2022-12-18T14:48:26;58.80;;;25.70;;
44440;SDS011;30146;52.268;20.944;2022-12-18T14:51:06;59.00;;;24.20;;
44440;SDS011;30146;52.268;20.944;2022-12-18T14:53:43;58.20;;;26.50;;
44440;SDS011;30146;52.268;20.944;2022-12-18T14:56:21;74.00;;;28.60;;
44440;SDS011;30146;52.268;20.944;2022-12-18T14:58:53;65.50;;;26.80;;
44440;SDS011;30146;52.268;20.944;2022-12-18T15:01:24;62.10;;;24.70;;
44440;SDS011;30146;52.268;20.944;2022-12-18T15:03:55;58.30;;;24.80;;
44440;SDS011;30146;52.268;20.944;2022-12-18T15:06:27;64.50;;;24.60;;
44440;SDS011;30146;52.268;20.944;2022-12-18T15:08:57;65.80;;;28.20;;
44440;SDS011;30146;52.268;20.944;2022-12-18T15:11:28;65.00;;;27.70;;
44440;SDS011;30146;52.268;20.944;2022-12-18T15:17:06;72.70;;;28.70;;
44440;SDS011;30146;52.268;20.944;2022-12-18T15:19:44;60.10;;;26.70;;